sensor_id;sensor_type;location;lat;lon;timestamp;pressure;altitude;pressure_sealevel;temperature;humidity
35716;BME280;21840;44.920;8.616;2023-04-05T00:00:42;100466.19;;;11.45;33.95
35716;BME280;21840;44.920;8.616;2023-04-05T00:03:07;100469.50;;;11.48;33.54
35716;BME280;21840;44.920;8.616;2023-04-05T00:05:34;100467.56;;;11.40;34.26
35716;BME280;21840;44.920;8.616;2023-04-05T00:08:00;100472.81;;;11.30;34.08
35716;BME280;21840;44.920;8.616;2023-04-05T00:10:26;100470.97;;;11.01;33.34
35716;BME280;21840;44.920;8.616;2023-04-05T00:12:52;100469.09;;;11.42;32.96
35716;BME280;21840;44.920;8.616;2023-04-05T00:15:17;100470.06;;;11.41;33.30
35716;BME280;21840;44.920;8.616;2023-04-05T00:17:46;100464.78;;;11.22;33.68
35716;BME280;21840;44.920;8.616;2023-04-05T00:20:11;100470.59;;;11.26;33.41
35716;BME280;21840;44.920;8.616;2023-04-05T00:22:37;100473.84;;;10.89;33.91
35716;BME280;21840;44.920;8.616;2023-04-05T00:25:05;100468.81;;;10.66;34.52
35716;BME280;21840;44.920;8.616;2023-04-05T00:27:30;100472.53;;;10.64;34.55
35716;BME280;21840;44.920;8.616;2023-04-05T00:29:56;100478.50;;;10.75;34.31
35716;BME280;21840;44.920;8.616;2023-04-05T00:32:21;100470.63;;;10.45;34.38
35716;BME280;21840;44.920;8.616;2023-04-05T00:34:47;100483.28;;;10.30;34.78
35716;BME280;21840;44.920;8.616;2023-04-05T00:37:12;100479.78;;;10.50;34.37
35716;BME280;21840;44.920;8.616;2023-04-05T00:39:38;100485.44;;;10.25;35.04
35716;BME280;21840;44.920;8.616;2023-04-05T00:42:04;100486.72;;;10.30;35.19
35716;BME280;21840;44.920;8.616;2023-04-05T00:44:30;100484.97;;;10.62;34.67
35716;BME280;21840;44.920;8.616;2023-04-05T00:47:02;100483.66;;;10.87;33.97
35716;BME280;21840;44.920;8.616;2023-04-05T00:49:28;100487.84;;;10.58;34.57
35716;BME280;21840;44.920;8.616;2023-04-05T00:51:55;100479.66;;;10.52;34.66
35716;BME280;21840;44.920;8.616;2023-04-05T00:54:21;100481.63;;;10.60;34.82
35716;BME280;21840;44.920;8.616;2023-04-05T00:56:47;100479.50;;;10.84;34.21
35716;BME280;21840;44.920;8.616;2023-04-05T00:59:12;100479.16;;;10.68;35.31
35716;BME280;21840;44.920;8.616;2023-04-05T01:01:38;100477.94;;;10.72;35.97
35716;BME280;21840;44.920;8.616;2023-04-05T01:04:04;100479.38;;;10.55;36.49
35716;BME280;21840;44.920;8.616;2023-04-05T01:06:35;100483.38;;;10.90;35.76
35716;BME280;21840;44.920;8.616;2023-04-05T01:11:47;100473.84;;;10.89;34.67
35716;BME280;21840;44.920;8.616;2023-04-05T01:14:13;100475.53;;;10.99;34.61
35716;BME280;21840;44.920;8.616;2023-04-05T01:16:39;100473.84;;;10.89;34.76
35716;BME280;21840;44.920;8.616;2023-04-05T01:19:04;100472.72;;;10.82;35.27
35716;BME280;21840;44.920;8.616;2023-04-05T01:26:51;100478.16;;;10.07;37.09
35716;BME280;21840;44.920;8.616;2023-04-05T01:32:00;100470.09;;;9.99;34.86
35716;BME280;21840;44.920;8.616;2023-04-05T01:37:00;100476.94;;;10.11;34.38
35716;BME280;21840;44.920;8.616;2023-04-05T01:39:26;100478.09;;;9.98;35.55
35716;BME280;21840;44.920;8.616;2023-04-05T01:41:56;100483.19;;;10.20;34.56
35716;BME280;21840;44.920;8.616;2023-04-05T01:44:22;100477.22;;;10.29;34.25
35716;BME280;21840;44.920;8.616;2023-04-05T01:46:47;100481.38;;;10.32;35.25
35716;BME280;21840;44.920;8.616;2023-04-05T01:49:13;100475.47;;;10.19;35.04
35716;BME280;21840;44.920;8.616;2023-04-05T01:51:39;100474.47;;;10.41;34.79
35716;BME280;21840;44.920;8.616;2023-04-05T01:54:06;100483.84;;;10.12;33.71
35716;BME280;21840;44.920;8.616;2023-04-05T01:56:31;100484.19;;;9.66;34.17
35716;BME280;21840;44.920;8.616;2023-04-05T01:58:57;100488.84;;;9.30;36.47
35716;BME280;21840;44.920;8.616;2023-04-05T02:01:22;100479.91;;;9.33;38.75
35716;BME280;21840;44.920;8.616;2023-04-05T02:03:47;100479.97;;;9.10;39.75
35716;BME280;21840;44.920;8.616;2023-04-05T02:06:13;100478.47;;;8.85;41.79
35716;BME280;21840;44.920;8.616;2023-04-05T02:08:38;100489.78;;;8.74;43.98
35716;BME280;21840;44.920;8.616;2023-04-05T02:11:04;100492.13;;;8.32;43.22
35716;BME280;21840;44.920;8.616;2023-04-05T02:13:29;100489.03;;;7.81;44.62
35716;BME280;21840;44.920;8.616;2023-04-05T02:15:55;100488.66;;;7.74;45.30
35716;BME280;21840;44.920;8.616;2023-04-05T02:18:21;100486.56;;;7.90;45.35
35716;BME280;21840;44.920;8.616;2023-04-05T02:20:50;100488.25;;;7.91;46.22
35716;BME280;21840;44.920;8.616;2023-04-05T02:23:17;100490.91;;;8.14;45.02
35716;BME280;21840;44.920;8.616;2023-04-05T02:25:43;100495.03;;;8.05;45.41
35716;BME280;21840;44.920;8.616;2023-04-05T02:28:08;100485.69;;;8.14;45.01
35716;BME280;21840;44.920;8.616;2023-04-05T02:30:33;100491.88;;;8.35;43.68
35716;BME280;21840;44.920;8.616;2023-04-05T02:32:59;100488.69;;;8.43;42.78
35716;BME280;21840;44.920;8.616;2023-04-05T02:35:26;100489.56;;;8.08;40.67
35716;BME280;21840;44.920;8.616;2023-04-05T02:37:51;100485.16;;;8.55;42.62
35716;BME280;21840;44.920;8.616;2023-04-05T02:40:16;100491.44;;;8.53;39.22
35716;BME280;21840;44.920;8.616;2023-04-05T02:42:42;100484.22;;;8.56;38.46
35716;BME280;21840;44.920;8.616;2023-04-05T02:45:07;100492.28;;;8.87;41.17
35716;BME280;21840;44.920;8.616;2023-04-05T02:47:33;100487.34;;;8.15;43.26
35716;BME280;21840;44.920;8.616;2023-04-05T02:50:00;100483.06;;;8.14;41.55
35716;BME280;21840;44.920;8.616;2023-04-05T02:52:30;100481.75;;;8.19;40.99
35716;BME280;21840;44.920;8.616;2023-04-05T02:54:56;100491.00;;;8.12;40.40
35716;BME280;21840;44.920;8.616;2023-04-05T02:57:27;100493.69;;;7.88;39.21
35716;BME280;21840;44.920;8.616;2023-04-05T03:00:00;100488.25;;;8.03;39.18
35716;BME280;21840;44.920;8.616;2023-04-05T03:02:28;100484.75;;;7.80;39.24
35716;BME280;21840;44.920;8.616;2023-04-05T03:04:54;100491.56;;;7.93;38.96
35716;BME280;21840;44.920;8.616;2023-04-05T03:07:20;100486.56;;;7.90;39.23
35716;BME280;21840;44.920;8.616;2023-04-05T03:09:47;100492.94;;;8.21;38.73
35716;BME280;21840;44.920;8.616;2023-04-05T03:12:13;100489.25;;;8.24;38.54
35716;BME280;21840;44.920;8.616;2023-04-05T03:14:41;100491.56;;;8.40;38.42
35716;BME280;21840;44.920;8.616;2023-04-05T03:17:09;100499.53;;;8.50;38.07
35716;BME280;21840;44.920;8.616;2023-04-05T03:19:39;100492.22;;;8.31;38.19
35716;BME280;21840;44.920;8.616;2023-04-05T03:22:12;100496.34;;;8.69;37.98
35716;BME280;21840;44.920;8.616;2023-04-05T03:24:39;100492.75;;;8.81;37.35
35716;BME280;21840;44.920;8.616;2023-04-05T03:27:07;100493.47;;;8.72;37.08
35716;BME280;21840;44.920;8.616;2023-04-05T03:29:47;100502.16;;;8.61;37.62
35716;BME280;21840;44.920;8.616;2023-04-05T03:32:16;100505.47;;;7.94;38.32
35716;BME280;21840;44.920;8.616;2023-04-05T03:34:48;100503.16;;;7.78;39.72
35716;BME280;21840;44.920;8.616;2023-04-05T03:37:15;100511.41;;;7.96;41.65
35716;BME280;21840;44.920;8.616;2023-04-05T03:39:47;100518.31;;;7.62;42.17
35716;BME280;21840;44.920;8.616;2023-04-05T03:42:13;100511.97;;;7.53;41.96
35716;BME280;21840;44.920;8.616;2023-04-05T03:44:41;100510.66;;;7.59;39.77
35716;BME280;21840;44.920;8.616;2023-04-05T03:47:06;100507.25;;;7.93;38.55
35716;BME280;21840;44.920;8.616;2023-04-05T03:49:32;100500.16;;;8.07;38.08
35716;BME280;21840;44.920;8.616;2023-04-05T03:51:57;100498.81;;;8.01;38.23
35716;BME280;21840;44.920;8.616;2023-04-05T03:54:22;100506.13;;;8.09;37.88
35716;BME280;21840;44.920;8.616;2023-04-05T03:56:53;100510.69;;;8.29;37.48
35716;BME280;21840;44.920;8.616;2023-04-05T03:59:19;100502.00;;;8.29;37.75
35716;BME280;21840;44.920;8.616;2023-04-05T04:01:44;100506.44;;;8.51;37.52
35716;BME280;21840;44.920;8.616;2023-04-05T04:04:09;100512.81;;;8.24;37.79
35716;BME280;21840;44.920;8.616;2023-04-05T04:06:39;100513.22;;;8.53;38.41
35716;BME280;21840;44.920;8.616;2023-04-05T04:09:06;100507.81;;;8.32;38.60
35716;BME280;21840;44.920;8.616;2023-04-05T04:11:32;100513.69;;;8.47;37.55
35716;BME280;21840;44.920;8.616;2023-04-05T04:14:01;100512.63;;;8.61;37.33
35716;BME280;21840;44.920;8.616;2023-04-05T04:16:45;100505.75;;;8.49;37.69
35716;BME280;21840;44.920;8.616;2023-04-05T04:19:36;100515.94;;;8.40;37.36
35716;BME280;21840;44.920;8.616;2023-04-05T04:22:33;100515.03;;;8.64;36.81
35716;BME280;21840;44.920;8.616;2023-04-05T04:25:26;100515.72;;;8.77;36.60
35716;BME280;21840;44.920;8.616;2023-04-05T04:28:04;100521.47;;;8.71;36.30
35716;BME280;21840;44.920;8.616;2023-04-05T04:30:54;100521.44;;;8.82;35.87
35716;BME280;21840;44.920;8.616;2023-04-05T04:33:52;100523.69;;;8.53;36.46
35716;BME280;21840;44.920;8.616;2023-04-05T04:36:55;100519.50;;;8.51;36.34
35716;BME280;21840;44.920;8.616;2023-04-05T04:39:51;100516.78;;;8.63;36.20
35716;BME280;21840;44.920;8.616;2023-04-05T04:42:34;100524.53;;;8.65;36.37
35716;BME280;21840;44.920;8.616;2023-04-05T04:45:13;100527.28;;;8.75;36.04
35716;BME280;21840;44.920;8.616;2023-04-05T04:47:45;100530.72;;;8.87;35.79
35716;BME280;21840;44.920;8.616;2023-04-05T04:50:37;100530.97;;;8.72;35.83
35716;BME280;21840;44.920;8.616;2023-04-05T04:53:03;100540.25;;;8.88;35.96
35716;BME280;21840;44.920;8.616;2023-04-05T04:55:28;100534.75;;;8.91;35.95
35716;BME280;21840;44.920;8.616;2023-04-05T04:57:54;100534.31;;;8.74;36.39
35716;BME280;21840;44.920;8.616;2023-04-05T05:00:20;100542.63;;;8.68;37.38
35716;BME280;21840;44.920;8.616;2023-04-05T05:02:47;100543.47;;;8.69;36.53
35716;BME280;21840;44.920;8.616;2023-04-05T05:05:14;100550.34;;;8.58;37.34
35716;BME280;21840;44.920;8.616;2023-04-05T05:07:40;100548.78;;;9.01;37.26
35716;BME280;21840;44.920;8.616;2023-04-05T05:10:09;100550.47;;;9.02;36.64
35716;BME280;21840;44.920;8.616;2023-04-05T05:12:38;100552.25;;;9.13;36.90
35716;BME280;21840;44.920;8.616;2023-04-05T05:15:04;100551.31;;;9.02;37.25
35716;BME280;21840;44.920;8.616;2023-04-05T05:17:30;100542.72;;;9.00;36.63
35716;BME280;21840;44.920;8.616;2023-04-05T05:19:56;100547.63;;;9.05;36.21
35716;BME280;21840;44.920;8.616;2023-04-05T05:22:24;100546.28;;;9.11;35.89
35716;BME280;21840;44.920;8.616;2023-04-05T05:24:50;100554.63;;;9.27;35.30
35716;BME280;21840;44.920;8.616;2023-04-05T05:27:15;100552.03;;;9.04;35.78
35716;BME280;21840;44.920;8.616;2023-04-05T05:29:41;100557.03;;;9.07;36.18
35716;BME280;21840;44.920;8.616;2023-04-05T05:32:07;100558.81;;;9.07;36.18
35716;BME280;21840;44.920;8.616;2023-04-05T05:34:35;100560.47;;;9.19;35.79
35716;BME280;21840;44.920;8.616;2023-04-05T05:37:01;100553.19;;;9.34;35.63
35716;BME280;21840;44.920;8.616;2023-04-05T05:39:26;100560.38;;;9.64;35.30
35716;BME280;21840;44.920;8.616;2023-04-05T05:41:52;100557.22;;;9.82;35.37
35716;BME280;21840;44.920;8.616;2023-04-05T05:44:17;100557.59;;;9.98;35.57
35716;BME280;21840;44.920;8.616;2023-04-05T05:46:43;100569.59;;;10.12;35.42
35716;BME280;21840;44.920;8.616;2023-04-05T05:49:08;100563.19;;;10.37;33.83
35716;BME280;21840;44.920;8.616;2023-04-05T05:51:34;100568.25;;;10.18;33.76
35716;BME280;21840;44.920;8.616;2023-04-05T05:54:00;100560.63;;;10.47;33.16
35716;BME280;21840;44.920;8.616;2023-04-05T05:56:25;100568.72;;;10.23;34.08
35716;BME280;21840;44.920;8.616;2023-04-05T05:58:51;100566.44;;;10.29;33.54
35716;BME280;21840;44.920;8.616;2023-04-05T06:01:17;100570.13;;;10.48;33.38
35716;BME280;21840;44.920;8.616;2023-04-05T06:03:43;100571.81;;;10.49;35.03
35716;BME280;21840;44.920;8.616;2023-04-05T06:06:08;100573.97;;;10.65;34.59
35716;BME280;21840;44.920;8.616;2023-04-05T06:08:35;100577.16;;;10.68;34.47
35716;BME280;21840;44.920;8.616;2023-04-05T06:11:01;100585.53;;;10.83;34.97
35716;BME280;21840;44.920;8.616;2023-04-05T06:13:27;100591.53;;;10.64;35.18
35716;BME280;21840;44.920;8.616;2023-04-05T06:15:52;100589.47;;;10.68;33.53
35716;BME280;21840;44.920;8.616;2023-04-05T06:18:17;100585.53;;;10.83;34.32
35716;BME280;21840;44.920;8.616;2023-04-05T06:20:44;100591.97;;;11.00;35.48
35716;BME280;21840;44.920;8.616;2023-04-05T06:23:10;100583.22;;;11.30;35.87
35716;BME280;21840;44.920;8.616;2023-04-05T06:25:36;100590.16;;;11.31;35.90
35716;BME280;21840;44.920;8.616;2023-04-05T06:28:05;100586.25;;;10.85;36.32
35716;BME280;21840;44.920;8.616;2023-04-05T06:30:30;100596.13;;;10.72;36.19
35716;BME280;21840;44.920;8.616;2023-04-05T06:32:57;100596.13;;;11.02;35.48
35716;BME280;21840;44.920;8.616;2023-04-05T06:35:22;100599.41;;;11.16;35.28
35716;BME280;21840;44.920;8.616;2023-04-05T06:37:48;100595.69;;;11.38;34.35
35716;BME280;21840;44.920;8.616;2023-04-05T06:40:14;100591.69;;;11.34;34.27
35716;BME280;21840;44.920;8.616;2023-04-05T06:42:39;100599.84;;;11.31;33.53
35716;BME280;21840;44.920;8.616;2023-04-05T06:45:09;100597.47;;;11.28;34.28
35716;BME280;21840;44.920;8.616;2023-04-05T06:47:35;100601.59;;;11.61;33.63
35716;BME280;21840;44.920;8.616;2023-04-05T06:50:01;100598.41;;;11.67;32.93
35716;BME280;21840;44.920;8.616;2023-04-05T06:52:27;100600.53;;;11.93;33.03
35716;BME280;21840;44.920;8.616;2023-04-05T06:54:53;100598.59;;;12.14;33.13
35716;BME280;21840;44.920;8.616;2023-04-05T06:57:18;100597.78;;;12.23;32.84
35716;BME280;21840;44.920;8.616;2023-04-05T06:59:43;100595.84;;;12.16;32.36
35716;BME280;21840;44.920;8.616;2023-04-05T07:02:09;100596.38;;;11.90;32.29
35716;BME280;21840;44.920;8.616;2023-04-05T07:04:34;100593.75;;;12.29;31.60
35716;BME280;21840;44.920;8.616;2023-04-05T07:07:03;100599.44;;;12.34;31.77
35716;BME280;21840;44.920;8.616;2023-04-05T07:09:32;100590.41;;;12.46;31.53
35716;BME280;21840;44.920;8.616;2023-04-05T07:12:01;100601.22;;;12.43;31.53
35716;BME280;21840;44.920;8.616;2023-04-05T07:14:28;100599.97;;;12.28;31.61
35716;BME280;21840;44.920;8.616;2023-04-05T07:16:53;100594.38;;;12.60;31.14
35716;BME280;21840;44.920;8.616;2023-04-05T07:19:19;100591.84;;;12.78;31.10
35716;BME280;21840;44.920;8.616;2023-04-05T07:21:44;100594.34;;;12.80;31.08
35716;BME280;21840;44.920;8.616;2023-04-05T07:24:10;100597.19;;;12.96;30.43
35716;BME280;21840;44.920;8.616;2023-04-05T07:26:35;100600.38;;;13.00;30.60
35716;BME280;21840;44.920;8.616;2023-04-05T07:29:02;100596.03;;;13.08;30.77
35716;BME280;21840;44.920;8.616;2023-04-05T07:31:28;100593.19;;;12.92;31.18
35716;BME280;21840;44.920;8.616;2023-04-05T07:33:53;100598.56;;;12.53;31.54
35716;BME280;21840;44.920;8.616;2023-04-05T07:36:19;100597.72;;;12.62;31.52
35716;BME280;21840;44.920;8.616;2023-04-05T07:38:44;100605.53;;;12.91;30.34
35716;BME280;21840;44.920;8.616;2023-04-05T07:41:10;100600.13;;;13.30;30.32
35716;BME280;21840;44.920;8.616;2023-04-05T07:43:35;100609.31;;;13.16;30.13
35716;BME280;21840;44.920;8.616;2023-04-05T07:46:02;100605.81;;;13.26;30.20
35716;BME280;21840;44.920;8.616;2023-04-05T07:48:28;100606.63;;;13.36;30.03
35716;BME280;21840;44.920;8.616;2023-04-05T07:50:53;100606.84;;;13.43;30.13
35716;BME280;21840;44.920;8.616;2023-04-05T07:53:19;100608.38;;;13.45;30.21
35716;BME280;21840;44.920;8.616;2023-04-05T07:55:44;100611.47;;;13.86;29.65
35716;BME280;21840;44.920;8.616;2023-04-05T07:58:10;100608.19;;;13.74;29.32
35716;BME280;21840;44.920;8.616;2023-04-05T08:00:36;100604.44;;;13.77;29.38
35716;BME280;21840;44.920;8.616;2023-04-05T08:03:02;100605.81;;;13.81;28.94
35716;BME280;21840;44.920;8.616;2023-04-05T08:05:28;100606.88;;;13.88;28.91
35716;BME280;21840;44.920;8.616;2023-04-05T08:07:54;100608.00;;;14.03;28.96
35716;BME280;21840;44.920;8.616;2023-04-05T08:10:22;100602.78;;;13.94;28.89
35716;BME280;21840;44.920;8.616;2023-04-05T08:12:47;100606.34;;;14.20;28.90
35716;BME280;21840;44.920;8.616;2023-04-05T08:15:12;100608.97;;;14.20;28.75
35716;BME280;21840;44.920;8.616;2023-04-05T08:17:38;100604.63;;;14.37;28.70
35716;BME280;21840;44.920;8.616;2023-04-05T08:20:03;100604.63;;;14.37;28.85
35716;BME280;21840;44.920;8.616;2023-04-05T08:22:29;100611.31;;;14.50;28.63
35716;BME280;21840;44.920;8.616;2023-04-05T08:24:54;100606.50;;;14.63;28.33
35716;BME280;21840;44.920;8.616;2023-04-05T08:27:20;100607.63;;;14.42;28.67
35716;BME280;21840;44.920;8.616;2023-04-05T08:29:45;100612.47;;;14.47;28.40
35716;BME280;21840;44.920;8.616;2023-04-05T08:32:10;100608.50;;;13.89;28.59
35716;BME280;21840;44.920;8.616;2023-04-05T08:34:36;100607.50;;;14.44;28.43
35716;BME280;21840;44.920;8.616;2023-04-05T08:37:01;100609.75;;;14.57;28.53
35716;BME280;21840;44.920;8.616;2023-04-05T08:39:27;100610.75;;;14.82;28.12
35716;BME280;21840;44.920;8.616;2023-04-05T08:42:28;100615.22;;;14.81;27.92
35716;BME280;21840;44.920;8.616;2023-04-05T08:44:44;100613.97;;;14.94;28.07
35716;BME280;21840;44.920;8.616;2023-04-05T08:47:11;100610.91;;;14.80;27.93
35716;BME280;21840;44.920;8.616;2023-04-05T08:49:43;100614.81;;;15.02;27.46
35716;BME280;21840;44.920;8.616;2023-04-05T08:52:08;100614.16;;;14.74;27.86
35716;BME280;21840;44.920;8.616;2023-04-05T08:54:34;100622.94;;;14.75;27.49
35716;BME280;21840;44.920;8.616;2023-04-05T08:57:00;100617.19;;;14.79;27.56
35716;BME280;21840;44.920;8.616;2023-04-05T08:59:28;100616.75;;;14.92;27.68
35716;BME280;21840;44.920;8.616;2023-04-05T09:01:53;100616.13;;;14.98;27.66
35716;BME280;21840;44.920;8.616;2023-04-05T09:04:20;100618.94;;;14.97;27.74
35716;BME280;21840;44.920;8.616;2023-04-05T09:06:48;100615.81;;;15.01;28.09
35716;BME280;21840;44.920;8.616;2023-04-05T09:09:14;100622.78;;;15.45;27.85
35716;BME280;21840;44.920;8.616;2023-04-05T09:11:40;100618.16;;;15.47;27.44
35716;BME280;21840;44.920;8.616;2023-04-05T09:14:07;100621.56;;;15.73;27.39
35716;BME280;21840;44.920;8.616;2023-04-05T09:16:33;100616.31;;;15.47;27.29
35716;BME280;21840;44.920;8.616;2023-04-05T09:19:01;100608.25;;;15.49;27.13
35716;BME280;21840;44.920;8.616;2023-04-05T09:21:26;100617.19;;;15.48;27.57
35716;BME280;21840;44.920;8.616;2023-04-05T09:23:52;100617.19;;;15.48;27.59
35716;BME280;21840;44.920;8.616;2023-04-05T09:26:22;100610.53;;;15.44;27.86
35716;BME280;21840;44.920;8.616;2023-04-05T09:28:50;100605.47;;;15.59;28.05
35716;BME280;21840;44.920;8.616;2023-04-05T09:31:32;100610.59;;;15.60;27.34
35716;BME280;21840;44.920;8.616;2023-04-05T09:33:58;100613.66;;;15.90;27.17
35716;BME280;21840;44.920;8.616;2023-04-05T09:36:25;100612.53;;;16.01;27.10
35716;BME280;21840;44.920;8.616;2023-04-05T09:38:50;100609.53;;;15.95;27.17
35716;BME280;21840;44.920;8.616;2023-04-05T09:41:15;100606.06;;;16.03;26.75
35716;BME280;21840;44.920;8.616;2023-04-05T09:43:41;100595.81;;;16.33;26.63
35716;BME280;21840;44.920;8.616;2023-04-05T09:46:15;100595.47;;;16.03;26.57
35716;BME280;21840;44.920;8.616;2023-04-05T09:48:52;100592.84;;;16.28;26.13
35716;BME280;21840;44.920;8.616;2023-04-05T09:51:17;100598.47;;;16.33;25.86
35716;BME280;21840;44.920;8.616;2023-04-05T09:53:55;100594.63;;;16.27;25.20
35716;BME280;21840;44.920;8.616;2023-04-05T09:56:21;100586.19;;;16.32;25.55
35716;BME280;21840;44.920;8.616;2023-04-05T09:58:49;100581.38;;;16.44;25.25
35716;BME280;21840;44.920;8.616;2023-04-05T10:01:15;100583.00;;;16.61;25.33
35716;BME280;21840;44.920;8.616;2023-04-05T10:03:47;100579.56;;;16.44;25.42
35716;BME280;21840;44.920;8.616;2023-04-05T10:06:13;100589.19;;;16.45;25.82
35716;BME280;21840;44.920;8.616;2023-04-05T10:08:39;100581.38;;;16.60;26.02
35716;BME280;21840;44.920;8.616;2023-04-05T10:11:05;100574.75;;;16.56;26.51
35716;BME280;21840;44.920;8.616;2023-04-05T10:13:30;100581.84;;;16.80;24.54
35716;BME280;21840;44.920;8.616;2023-04-05T10:15:56;100571.41;;;16.70;25.02
35716;BME280;21840;44.920;8.616;2023-04-05T10:18:26;100574.22;;;16.85;25.14
35716;BME280;21840;44.920;8.616;2023-04-05T10:20:53;100572.19;;;16.95;25.38
35716;BME280;21840;44.920;8.616;2023-04-05T10:30:45;100570.63;;;17.09;24.65
35716;BME280;21840;44.920;8.616;2023-04-05T10:33:21;100559.81;;;17.19;23.70
35716;BME280;21840;44.920;8.616;2023-04-05T10:35:59;100559.66;;;17.12;23.85
35716;BME280;21840;44.920;8.616;2023-04-05T10:38:28;100553.97;;;17.23;24.24
35716;BME280;21840;44.920;8.616;2023-04-05T10:40:59;100560.91;;;16.93;24.08
35716;BME280;21840;44.920;8.616;2023-04-05T10:43:26;100565.09;;;17.19;23.74
35716;BME280;21840;44.920;8.616;2023-04-05T10:45:53;100563.19;;;17.04;24.04
35716;BME280;21840;44.920;8.616;2023-04-05T10:48:28;100566.03;;;17.03;23.70
35716;BME280;21840;44.920;8.616;2023-04-05T10:50:56;100553.00;;;17.16;23.34
35716;BME280;21840;44.920;8.616;2023-04-05T10:53:22;100553.28;;;17.30;23.75
35716;BME280;21840;44.920;8.616;2023-04-05T10:55:49;100543.03;;;17.50;23.88
35716;BME280;21840;44.920;8.616;2023-04-05T10:58:15;100545.38;;;17.53;23.38
35716;BME280;21840;44.920;8.616;2023-04-05T11:00:41;100545.28;;;17.38;23.26
35716;BME280;21840;44.920;8.616;2023-04-05T11:03:06;100542.13;;;17.65;22.92
35716;BME280;21840;44.920;8.616;2023-04-05T11:05:35;100540.00;;;17.61;22.65
35716;BME280;21840;44.920;8.616;2023-04-05T11:08:02;100541.19;;;17.27;22.89
35716;BME280;21840;44.920;8.616;2023-04-05T11:10:28;100543.81;;;17.35;22.68
35716;BME280;21840;44.920;8.616;2023-04-05T11:18:01;100536.63;;;17.13;22.51
35716;BME280;21840;44.920;8.616;2023-04-05T11:20:39;100538.78;;;17.09;22.81
35716;BME280;21840;44.920;8.616;2023-04-05T11:23:08;100536.38;;;16.91;22.96
35716;BME280;21840;44.920;8.616;2023-04-05T11:25:37;100538.66;;;17.02;22.72
35716;BME280;21840;44.920;8.616;2023-04-05T11:28:04;100542.84;;;17.28;22.34
35716;BME280;21840;44.920;8.616;2023-04-05T11:30:51;100524.03;;;17.07;22.98
35716;BME280;21840;44.920;8.616;2023-04-05T11:33:36;100523.25;;;17.29;22.78
35716;BME280;21840;44.920;8.616;2023-04-05T11:36:02;100521.03;;;17.10;23.00
35716;BME280;21840;44.920;8.616;2023-04-05T11:38:28;100527.75;;;16.89;23.16
35716;BME280;21840;44.920;8.616;2023-04-05T11:41:12;100513.72;;;16.80;22.96
35716;BME280;21840;44.920;8.616;2023-04-05T11:43:44;100506.06;;;16.86;23.27
35716;BME280;21840;44.920;8.616;2023-04-05T11:46:11;100510.56;;;16.69;23.35
35716;BME280;21840;44.920;8.616;2023-04-05T11:48:37;100509.91;;;16.75;23.26
35716;BME280;21840;44.920;8.616;2023-04-05T11:51:08;100503.56;;;16.84;23.26
35716;BME280;21840;44.920;8.616;2023-04-05T11:53:37;100512.19;;;17.25;23.16
35716;BME280;21840;44.920;8.616;2023-04-05T11:56:09;100504.59;;;17.45;22.66
35716;BME280;21840;44.920;8.616;2023-04-05T11:58:36;100506.94;;;17.09;22.15
35716;BME280;21840;44.920;8.616;2023-04-05T12:01:03;100491.31;;;17.45;22.06
35716;BME280;21840;44.920;8.616;2023-04-05T12:03:30;100491.19;;;17.39;22.04
35716;BME280;21840;44.920;8.616;2023-04-05T12:06:05;100484.28;;;17.53;21.79
35716;BME280;21840;44.920;8.616;2023-04-05T12:08:38;100498.91;;;17.80;21.66
35716;BME280;21840;44.920;8.616;2023-04-05T12:11:10;100485.16;;;17.68;21.82
35716;BME280;21840;44.920;8.616;2023-04-05T12:13:37;100483.88;;;17.64;21.58
35716;BME280;21840;44.920;8.616;2023-04-05T12:16:03;100488.44;;;17.55;21.48
35716;BME280;21840;44.920;8.616;2023-04-05T12:18:29;100482.09;;;17.56;21.23
35716;BME280;21840;44.920;8.616;2023-04-05T12:20:55;100477.22;;;17.45;21.65
35716;BME280;21840;44.920;8.616;2023-04-05T12:23:21;100475.25;;;17.62;21.24
35716;BME280;21840;44.920;8.616;2023-04-05T12:25:47;100472.53;;;17.70;21.14
35716;BME280;21840;44.920;8.616;2023-04-05T12:28:13;100468.34;;;18.14;21.25
35716;BME280;21840;44.920;8.616;2023-04-05T12:30:54;100472.19;;;18.11;21.14
35716;BME280;21840;44.920;8.616;2023-04-05T12:35:51;100464.31;;;18.18;21.02
35716;BME280;21840;44.920;8.616;2023-04-05T12:38:16;100459.00;;;18.03;21.12
35716;BME280;21840;44.920;8.616;2023-04-05T12:40:42;100453.31;;;18.06;21.31
35716;BME280;21840;44.920;8.616;2023-04-05T12:43:08;100459.56;;;18.28;21.09
35716;BME280;21840;44.920;8.616;2023-04-05T12:45:33;100458.75;;;18.42;21.04
35716;BME280;21840;44.920;8.616;2023-04-05T12:48:09;100453.16;;;18.37;20.90
35716;BME280;21840;44.920;8.616;2023-04-05T12:50:35;100451.03;;;18.32;20.78
35716;BME280;21840;44.920;8.616;2023-04-05T12:53:03;100452.41;;;18.43;20.36
35716;BME280;21840;44.920;8.616;2023-04-05T12:55:29;100454.31;;;18.64;20.60
35716;BME280;21840;44.920;8.616;2023-04-05T12:57:56;100459.91;;;18.69;20.52
35716;BME280;21840;44.920;8.616;2023-04-05T13:00:23;100451.38;;;18.59;20.40
35716;BME280;21840;44.920;8.616;2023-04-05T13:02:51;100453.22;;;18.73;20.13
35716;BME280;21840;44.920;8.616;2023-04-05T13:05:18;100436.31;;;18.96;19.95
35716;BME280;21840;44.920;8.616;2023-04-05T13:07:43;100436.72;;;19.36;19.69
35716;BME280;21840;44.920;8.616;2023-04-05T13:10:09;100432.41;;;19.13;20.58
35716;BME280;21840;44.920;8.616;2023-04-05T13:12:34;100427.84;;;19.50;20.11
35716;BME280;21840;44.920;8.616;2023-04-05T13:14:59;100424.09;;;19.45;19.80
35716;BME280;21840;44.920;8.616;2023-04-05T13:17:25;100415.53;;;19.71;19.47
35716;BME280;21840;44.920;8.616;2023-04-05T13:19:50;100420.69;;;19.72;19.54
35716;BME280;21840;44.920;8.616;2023-04-05T13:22:15;100421.06;;;19.26;19.72
35716;BME280;21840;44.920;8.616;2023-04-05T13:24:41;100421.38;;;19.38;19.52